Iron Mountain, MI (49801)

3:45 PM CDT on May 28, 2017 (GMT -0500)
North Side | | Change Station

Elev 1060 ft 45.83 °N, 88.06 °W | Updated 1 second ago

Heavy Rain
Heavy Rain
65.3 °F
Feels Like 65.3 °F
N
7.4
Wind Variable Wind from NW
Gusts 13.0 mph

Today
High -- | Low -- °F
--% Chance of Precip.
Yesterday
High -- | Low -- °F
Precip. -- in
Pressure 29.62 in
Visibility 1.5 miles
Clouds Few 2700 ft
Mostly Cloudy 6500 ft
Overcast 10000 ft
Dew Point 54 °F
Humidity 66%
Rainfall 0.18 in
Snow Depth Not available.
5:08 AM 8:31 PM
Waxing Crescent, 13% visible
SPECI KIMT 282037Z AUTO 29013G23KT 1 1/2SM VCTS +RA FEW027 BKN065 OVC100 16/12 A2962 RMK AO2 LTG DSNT N AND SW RAB22 P0009 T01560117
Pressure 29.62 in
Visibility 1.5 miles
Clouds Few 2700 ft
Mostly Cloudy 6500 ft
Overcast 10000 ft
Dew Point 54 °F
Humidity 66%
Rainfall 0.18 in
Snow Depth Not available.
5:08 AM 8:31 PM
Waxing Crescent, 13% visible
SPECI KIMT 282037Z AUTO 29013G23KT 1 1/2SM VCTS +RA FEW027 BKN065 OVC100 16/12 A2962 RMK AO2 LTG DSNT N AND SW RAB22 P0009 T01560117

Get Severe Weather Alerts

Thanks for signing up!

Be on the lookout for a verification email in your inbox.

You'll start receiving the daily forecast at 6 AM.

×

10-Day Weather Forecast

Almanac

Astronomy

May. 28, 2017 Rise Set
Actual Time
Civil Twilight
Nautical Twilight
Astronomical Twilight
Moon
Length of Visible Light
Length of Day
Tomorrow will be .
, % of the Moon is Illuminated

Today's Extremes

State Highs State Lows

Community

WunderPhotos

Category 6

Welcome to Category 6. This is the collective home for Weather Underground's featured writeups by Dr. Jeff Masters (right), Bob Henson (left), Chris Burt, and other regular contributors.

Nearby

Air Quality

  Air Quality AQ Index Pollutant
Not available.

Snow Depth

Station Depth Elevation

Earthquake Activity

City Distance Mag. Time & Date
Minimum magnitude displayed is 2.5.

Coastal Water Temperatures

Place Temperature

Stations

Nearby Weather Stations

Station Location Temp. Windchill Dew Point Humidity Wind Precip. Elev Updated Type
                   

Watches & Warnings

There are currently no watches in effect.